Flight Track Log - Related Links

Times and Time Zones

All times are in EDT time to prevent confusion due to time zone crossing. See the FDX3613 flight status page for this flight to view local times or setup timezone preferences in your user account.

Time Position Orientation Groundspeed Altitude Reporting Facility
EDT Latitude Longitude Course Direction KTS MPH feet Rate Location/Type
Sat 09:40:57 AM 32.7450 -117.2353 83° East 168 193 1,400  Level Los Angeles Center
Sat 09:42:10 AM 32.7567 -117.3100 281° West 227 261 2,600 2,015 Climbing Los Angeles Center
Sat 09:43:11 AM 32.6828 -117.3203 187° South 271 312 5,900 2,976 Climbing Los Angeles Center
Sat 09:44:13 AM 32.6464 -117.2411 119° Southeast 276 318 8,700 2,231 Climbing Los Angeles Center
Sat 09:45:12 AM 32.6367 -117.1500 97° East 279 321 10,400 1,400 Climbing Los Angeles Center
Sat 09:46:00 AM 32.6201 -116.7324 83° East  Level FlightAware Approximate
Sat 09:46:13 AM 32.6200 -117.0394 100° East 338 389 11,500  Level Los Angeles Center
Sat 09:47:14 AM 32.6139 -116.9222 94° East 358 412 13,300 2,066 Climbing Los Angeles Center
Sat 09:48:15 AM 32.6306 -116.7733 82° East 379 436 15,700 2,016 Climbing Los Angeles Center
Sat 09:49:16 AM 32.6425 -116.6433 84° East 394 453 17,400 1,475 Climbing Los Angeles Center
Sat 09:50:17 AM 32.6547 -116.5100 84° East 406 467 18,700 1,537 Climbing Los Angeles Center
Sat 09:51:17 AM 32.6689 -116.3739 83° East 421 484 20,500 1,537 Climbing Los Angeles Center
Sat 09:52:18 AM 32.6828 -116.2361 83° East 426 490 21,800 1,279 Climbing Los Angeles Center
Sat 09:53:19 AM 32.6953 -116.0950 84° East 433 498 23,100 1,230 Climbing Los Angeles Center
Sat 09:54:20 AM 32.7086 -115.9497 84° East 445 512 24,300 1,082 Climbing Los Angeles Center
Sat 09:55:21 AM 32.7222 -115.8019 84° East 451 519 25,300 1,033 Climbing Los Angeles Center
Sat 09:56:22 AM 32.7392 -115.6183 84° East 468 539 26,400 984 Climbing Los Angeles Center
Sat 09:57:23 AM 32.7511 -115.4628 85° East 476 548 27,300 836 Climbing Los Angeles Center
Sat 09:58:24 AM 32.7533 -115.3036 89° East 483 556 28,100 738 Climbing Los Angeles Center
Sat 09:59:25 AM 32.7561 -115.1406 89° East 492 566 28,800 836 Climbing Los Angeles Center
Sat 10:00:26 AM 32.7592 -114.9772 89° East 496 571 29,800 984 Climbing Los Angeles Center
Sat 10:01:27 AM 32.7625 -114.8136 89° East 496 571 30,800 787 Climbing Los Angeles Center
Sat 10:02:28 AM 32.7650 -114.6503 89° East 496 571 31,400 590 Climbing Los Angeles Center
Sat 10:03:29 AM 32.7672 -114.4842 89° East 501 577 32,000 639 Climbing Los Angeles Center
Sat 10:04:30 AM 32.7703 -114.3167 89° East 507 583 32,700 492 Climbing Los Angeles Center
Sat 10:05:31 AM 32.7725 -114.1497 89° East 508 585 33,000 237 Climbing Los Angeles Center
Sat 10:05:46 AM 32.7767 -114.0928 85° East 507 583 33,000  Level Albuquerque Center
Sat 10:06:47 AM 32.7797 -113.9258 89° East 506 582 33,000  Level Albuquerque Center
Sat 10:07:48 AM 32.8069 -113.7608 79° East 503 579 33,000  Level Albuquerque Center
Sat 10:08:49 AM 32.8311 -113.5964 80° East 504 580 33,000  Level Albuquerque Center
Sat 10:09:50 AM 32.8847 -113.4453 67° East 491 565 33,000  Level Albuquerque Center
Sat 10:10:51 AM 32.9447 -113.2933 65° Northeast 501 577 33,000  Level Albuquerque Center
Sat 10:11:52 AM 33.0039 -113.1431 65° Northeast 499 574 33,000  Level Albuquerque Center
Sat 10:12:54 AM 33.0642 -112.9925 64° Northeast 500 575 33,000 -49 Level Albuquerque Center
Sat 10:13:55 AM 33.1233 -112.8406 65° Northeast 501 577 32,900  Descending Albuquerque Center
Sat 10:14:56 AM 33.1817 -112.6897 65° Northeast 500 575 33,000 49 Climbing Albuquerque Center
Sat 10:15:57 AM 33.2381 -112.5356 66° East 502 578 33,000  Level Albuquerque Center
Sat 10:16:58 AM 33.3039 -112.3550 66° East 498 573 33,000  Level Albuquerque Center
Sat 10:18:00 AM 33.3583 -112.2033 67° East 499 574 33,000  Level Albuquerque Center
Sat 10:19:01 AM 33.4119 -112.0564 66° East 492 566 33,000  Level Albuquerque Center
Sat 10:20:02 AM 33.4653 -111.9125 66° East 483 556 33,000  Level Albuquerque Center
Sat 10:21:04 AM 33.5172 -111.7661 67° East 482 555 33,000  Level Albuquerque Center
Sat 10:22:05 AM 33.5703 -111.6175 67° East 488 562 33,000  Level Albuquerque Center
Sat 10:23:06 AM 33.6242 -111.4694 66° East 490 564 33,000  Level Albuquerque Center
Sat 10:24:08 AM 33.6875 -111.2892 67° East 493 567 33,000  Level Albuquerque Center
Sat 10:25:09 AM 33.7403 -111.1394 67° East 492 566 33,000  Level Albuquerque Center
Sat 10:26:11 AM 33.7942 -110.9878 67° East 496 571 33,000  Level Albuquerque Center
Sat 10:27:12 AM 33.8456 -110.8375 68° East 492 566 33,000  Level Albuquerque Center
Sat 10:28:14 AM 33.8975 -110.6867 67° East 491 565 33,000 146 Level Albuquerque Center
Sat 10:29:15 AM 33.9489 -110.5353 68° East 490 564 33,300 732 Climbing Albuquerque Center
Sat 10:30:17 AM 34.0067 -110.3661 68° East 491 565 34,500 829 Climbing Albuquerque Center
Sat 10:31:18 AM 34.0592 -110.2178 67° East 487 560 35,000 244 Climbing Albuquerque Center
Sat 10:32:20 AM 34.1142 -110.0539 68° East 493 567 35,000  Level Albuquerque Center
Sat 10:33:21 AM 34.1717 -109.8833 68° East 492 566 35,000  Level Albuquerque Center
Sat 10:34:23 AM 34.2217 -109.7386 67° East 491 565 35,000  Level Albuquerque Center
Sat 10:35:24 AM 34.2708 -109.5925 68° East 490 564 35,000  Level Albuquerque Center
Sat 10:36:26 AM 34.3272 -109.4239 68° East 487 560 35,000  Level Albuquerque Center
Sat 10:37:27 AM 34.3758 -109.2778 68° East 488 562 35,000  Level Albuquerque Center
Sat 10:38:29 AM 34.4322 -109.1069 68° East 489 563 35,000  Level Albuquerque Center
Sat 10:39:31 AM 34.4797 -108.9617 68° East 488 562 35,000  Level Albuquerque Center
Sat 10:40:32 AM 34.5272 -108.8167 68° East 486 559 35,000  Level Albuquerque Center
Sat 10:41:34 AM 34.5819 -108.6492 68° East 482 555 35,000  Level Albuquerque Center
Sat 10:42:35 AM 34.6283 -108.5044 69° East 482 555 35,000  Level Albuquerque Center
Sat 10:43:37 AM 34.6814 -108.3461 68° East 482 555 35,000  Level Albuquerque Center
Sat 10:44:39 AM 34.7286 -108.1939 69° East 483 556 35,000  Level Albuquerque Center
Sat 10:45:40 AM 34.7781 -108.0411 68° East 484 557 35,000 49 Level Albuquerque Center
Sat 10:46:42 AM 34.8272 -107.8886 69° East 485 558 35,100  Climbing Albuquerque Center
Sat 10:47:44 AM 34.8761 -107.7347 69° East 486 559 35,000 -49 Descending Albuquerque Center
Sat 10:48:45 AM 34.9333 -107.5500 69° East 486 559 35,000  Level Albuquerque Center
Sat 10:49:47 AM 34.9806 -107.3972 69° East 484 557 35,000  Level Albuquerque Center
Sat 10:50:49 AM 35.0283 -107.2431 69° East 484 557 35,000  Level Albuquerque Center
Sat 10:51:51 AM 35.0767 -107.0911 69° East 487 560 35,000  Level Albuquerque Center
Sat 10:52:52 AM 35.1275 -106.9206 70° East 480 552 35,000  Level Albuquerque Center
Sat 10:53:54 AM 35.1728 -106.7764 69° East 476 548 35,000  Level Albuquerque Center
Sat 10:54:56 AM 35.2267 -106.6050 69° East 480 552 35,000  Level Albuquerque Center
Sat 10:55:58 AM 35.2514 -106.4572 78° East 490 564 35,000  Level Albuquerque Center
Sat 10:56:59 AM 35.2761 -106.2953 79° East 486 559 35,000  Level Albuquerque Center
Sat 10:58:01 AM 35.3022 -106.1047 80° East 482 555 35,000  Level Albuquerque Center
Sat 10:59:03 AM 35.3258 -105.9406 80° East 485 558 35,000  Level Albuquerque Center
Sat 11:00:05 AM 35.3519 -105.7758 79° East 489 563 35,000  Level Albuquerque Center
Sat 11:01:07 AM 35.3772 -105.6111 79° East 488 562 35,000  Level Albuquerque Center
Sat 11:02:08 AM 35.3994 -105.4469 81° East 484 557 35,000  Level Albuquerque Center
Sat 11:03:10 AM 35.4242 -105.2828 79° East 486 559 35,000  Level Albuquerque Center
Sat 11:04:12 AM 35.4511 -105.1178 79° East 487 560 35,000  Level Albuquerque Center
Sat 11:05:14 AM 35.4769 -104.9536 79° East 487 560 35,000  Level Albuquerque Center
Sat 11:06:16 AM 35.5044 -104.7883 78° East 487 560 35,000  Level Albuquerque Center
Sat 11:07:17 AM 35.5322 -104.6236 78° East 487 560 35,000  Level Albuquerque Center
Sat 11:08:19 AM 35.5883 -104.4400 69° East 485 558 35,000  Level Albuquerque Center
Sat 11:09:21 AM 35.6325 -104.2803 71° East 485 558 35,000  Level Albuquerque Center
Sat 11:10:23 AM 35.6789 -104.1214 70° East 485 558 35,000  Level Albuquerque Center
Sat 11:11:24 AM 35.7239 -103.9619 71° East 487 560 35,000  Level Albuquerque Center
Sat 11:12:26 AM 35.7694 -103.8014 71° East 488 562 35,000 290 Level Albuquerque Center
Sat 11:13:28 AM 35.8142 -103.6417 71° East 488 562 35,600 581 Climbing Albuquerque Center
Sat 11:14:30 AM 35.8581 -103.4828 71° East 486 559 36,200 581 Climbing Albuquerque Center
Sat 11:15:32 AM 35.9028 -103.3256 71° East 484 557 36,800 390 Climbing Albuquerque Center
Sat 11:16:33 AM 35.9461 -103.1678 71° East 481 554 37,000 98 Climbing Albuquerque Center
Sat 11:17:35 AM 35.9906 -103.0067 71° East 488 562 37,000  Level Albuquerque Center
Sat 11:18:37 AM 36.0419 -102.8197 71° East 491 565 37,000  Level Albuquerque Center
Sat 11:19:39 AM 36.0847 -102.6600 72° East 490 564 37,000  Level Albuquerque Center
Sat 11:20:40 AM 36.1286 -102.5008 71° East 489 563 37,000  Level Albuquerque Center
Sat 11:21:42 AM 36.1711 -102.3400 72° East 490 564 37,000  Level Albuquerque Center
Sat 11:22:44 AM 36.2142 -102.1803 71° East 488 562 37,000  Level Albuquerque Center
Sat 11:23:45 AM 36.2572 -102.0194 72° East 491 565 37,000  Level Albuquerque Center
Sat 11:24:47 AM 36.2989 -101.8589 72° East 491 565 37,000  Level Albuquerque Center
Sat 11:25:49 AM 36.3406 -101.6986 72° East 488 562 37,000  Level Albuquerque Center
Sat 11:26:50 AM 36.3867 -101.5258 72° East 487 560 37,000  Level Albuquerque Center
Sat 11:27:52 AM 36.4325 -101.3442 73° East 491 565 37,000  Level Albuquerque Center
Sat 11:28:54 AM 36.4717 -101.1889 73° East 493 567 37,000  Level Albuquerque Center
Sat 11:29:37 AM 36.5042 -101.0594 73° East 492 566 37,000  Level Kansas City Center
Sat 11:30:38 AM 36.5433 -100.9050 72° East 491 565 37,000  Level Kansas City Center
Sat 11:31:40 AM 36.5892 -100.7239 72° East 493 567 37,000  Level Kansas City Center
Sat 11:32:41 AM 36.6283 -100.5681 73° East 494 568 37,000  Level Kansas City Center
Sat 11:33:43 AM 36.6706 -100.3986 73° East 494 568 37,000  Level Kansas City Center
Sat 11:34:45 AM 36.7111 -100.2344 73° East 493 567 37,000  Level Kansas City Center
Sat 11:35:46 AM 36.7506 -100.0694 73° East 494 568 37,000  Level Kansas City Center
Sat 11:36:48 AM 36.7906 -99.9056 73° East 492 566 37,000  Level Kansas City Center
Sat 11:37:49 AM 36.8292 -99.7403 74° East 493 567 37,000  Level Kansas City Center
Sat 11:38:51 AM 36.8683 -99.5761 73° East 491 565 37,000  Level Kansas City Center
Sat 11:39:52 AM 36.9092 -99.4069 73° East 499 574 37,000  Level Kansas City Center
Sat 11:40:54 AM 36.9481 -99.2383 74° East 502 578 37,000  Level Kansas City Center
Sat 11:41:55 AM 36.9861 -99.0725 74° East 496 571 37,000  Level Kansas City Center
Sat 11:42:57 AM 37.0328 -98.8711 74° East 498 573 37,000  Level Kansas City Center
Sat 11:43:59 AM 37.0681 -98.7186 74° East 498 573 37,000  Level Kansas City Center
Sat 11:45:00 AM 37.1067 -98.5536 74° East 495 570 37,000  Level Kansas City Center
Sat 11:46:02 AM 37.1447 -98.3892 74° East 495 570 37,000  Level Kansas City Center
Sat 11:47:03 AM 37.1819 -98.2236 74° East 495 570 37,000  Level Kansas City Center
Sat 11:48:05 AM 37.2192 -98.0586 74° East 495 570 37,000  Level Kansas City Center
Sat 11:49:06 AM 37.2636 -97.8608 74° East 495 570 37,000  Level Kansas City Center
Sat 11:50:08 AM 37.2997 -97.6950 75° East 495 570 37,000  Level Kansas City Center
Sat 11:51:09 AM 37.3511 -97.5378 68° East 493 567 37,000  Level Kansas City Center
Sat 11:52:11 AM 37.4092 -97.3797 65° Northeast 502 578 37,000  Level Kansas City Center
Sat 11:53:12 AM 37.4644 -97.2225 66° East 496 571 37,000  Level Kansas City Center
Sat 11:54:14 AM 37.4964 -97.0556 76° East 495 570 37,000  Level Kansas City Center
Sat 11:55:15 AM 37.5281 -96.8878 77° East 495 570 37,000  Level Kansas City Center
Sat 11:56:17 AM 37.5658 -96.6853 77° East 496 571 37,000  Level Kansas City Center
Sat 11:57:18 AM 37.6000 -96.5169 76° East 497 572 37,000  Level Kansas City Center
Sat 11:58:20 AM 37.6322 -96.3544 76° East 495 570 37,000  Level Kansas City Center
Sat 11:59:21 AM 37.6669 -96.1800 76° East 497 572 37,000  Level Kansas City Center
Sat 12:00:23 PM 37.6997 -96.0153 76° East 495 570 37,000  Level Kansas City Center
Sat 12:01:25 PM 37.7328 -95.8461 76° East 495 570 37,000  Level Kansas City Center
Sat 12:02:26 PM 37.7736 -95.6347 76° East 508 585 37,000  Level Kansas City Center
Sat 12:03:28 PM 37.8075 -95.4606 76° East 509 586 37,000 49 Level Kansas City Center
Sat 12:04:29 PM 37.8406 -95.2856 76° East 510 587 37,100  Climbing Kansas City Center
Sat 12:05:31 PM 37.8731 -95.1128 77° East 506 582 37,000 -49 Descending Kansas City Center
Sat 12:06:32 PM 37.9056 -94.9469 76° East 505 581 37,000  Level Kansas City Center
Sat 12:07:34 PM 37.9408 -94.7572 77° East 501 577 37,000  Level Kansas City Center
Sat 12:08:35 PM 37.9714 -94.5919 77° East 503 579 37,000  Level Kansas City Center
Sat 12:09:37 PM 38.0061 -94.3994 77° East 504 580 37,000  Level Kansas City Center
Sat 12:10:39 PM 38.0369 -94.2319 77° East 507 583 37,000  Level Kansas City Center
Sat 12:11:40 PM 38.0717 -94.0394 77° East 508 585 37,000  Level Kansas City Center
Sat 12:12:42 PM 38.1033 -93.8611 77° East 513 590 37,000  Level Kansas City Center
Sat 12:13:43 PM 38.1339 -93.6831 78° East 514 592 37,000  Level Kansas City Center
Sat 12:14:44 PM 38.1650 -93.5039 77° East 516 594 37,000  Level Kansas City Center
Sat 12:15:46 PM 38.1967 -93.3239 77° East 518 596 37,000  Level Kansas City Center
Sat 12:16:47 PM 38.2275 -93.1428 78° East 521 600 37,000  Level Kansas City Center
Sat 12:17:49 PM 38.2594 -92.9628 77° East 519 597 37,000 -290 Level Kansas City Center
Sat 12:18:51 PM 38.2881 -92.7858 78° East 511 588 36,400 -732 Descending Kansas City Center
Sat 12:19:52 PM 38.3186 -92.6042 78° East 514 592 35,500 -689 Descending Kansas City Center
Sat 12:20:53 PM 38.3478 -92.4236 78° East 514 592 35,000 -244 Descending Kansas City Center
Sat 12:21:55 PM 38.3769 -92.2372 79° East 529 609 35,000  Level Kansas City Center
Sat 12:22:56 PM 38.4058 -92.0567 78° East 523 602 35,000  Level Kansas City Center
Sat 12:23:58 PM 38.4350 -91.8761 78° East 519 597 35,000  Level Kansas City Center
Sat 12:24:59 PM 38.4625 -91.6953 79° East 517 595 35,000  Level Kansas City Center
Sat 12:26:01 PM 38.4964 -91.4786 79° East 516 594 35,000  Level Kansas City Center
Sat 12:27:02 PM 38.5231 -91.3106 78° East 516 594 35,000  Level Kansas City Center
Sat 12:28:04 PM 38.5494 -91.1308 79° East 518 596 35,000  Level Kansas City Center
Sat 12:29:05 PM 38.5769 -90.9525 79° East 516 594 35,000 -49 Level Kansas City Center
Sat 12:30:07 PM 38.6028 -90.7769 79° East 508 585 34,900  Descending Kansas City Center
Sat 12:31:08 PM 38.6314 -90.5819 79° East 508 585 35,000 49 Climbing Kansas City Center
Sat 12:32:10 PM 38.6575 -90.4047 79° East 507 583 35,000  Level Kansas City Center
Sat 12:33:11 PM 38.6850 -90.2242 79° East 510 587 35,000  Level Kansas City Center
Sat 12:34:13 PM 38.7094 -90.0428 80° East 513 590 35,000  Level Kansas City Center
Sat 12:35:14 PM 38.7356 -89.8592 80° East 525 604 35,000  Level Kansas City Center
Sat 12:36:16 PM 38.7661 -89.6447 80° East 517 595 35,000  Level Kansas City Center
Sat 12:37:17 PM 38.7906 -89.4639 80° East 514 592 35,000 -439 Level Kansas City Center
Sat 12:38:19 PM 38.8153 -89.2831 80° East 516 594 34,100 -1,561 Descending Kansas City Center
Sat 12:39:20 PM 38.8411 -89.0903 80° East 509 586 31,800 -2,049 Descending Kansas City Center
Sat 12:40:22 PM 38.8625 -88.9319 80° East 495 570 29,900 -2,000 Descending Kansas City Center
Sat 12:41:23 PM 38.8864 -88.7622 80° East 489 563 27,700 -2,146 Descending Kansas City Center
Sat 12:42:25 PM 38.9086 -88.5889 81° East 478 550 25,500 -1,805 Descending Kansas City Center
Sat 12:43:26 PM 38.9306 -88.4258 80° East 466 536 24,000 -1,011 Descending Kansas City Center
Sat 12:43:54 PM 38.9347 -88.3669 85° East 453 521 24,000  Level Indianapolis Center
Sat 12:44:55 PM 38.9583 -88.1778 81° East 445 512 24,000  Level Indianapolis Center
Sat 12:45:57 PM 38.9781 -88.0178 81° East 450 518 24,000 -1,220 Level Indianapolis Center
Sat 12:46:58 PM 38.9983 -87.8569 81° East 451 519 21,500 -2,195 Descending Indianapolis Center
Sat 12:48:00 PM 39.0175 -87.6972 81° East 451 519 19,500 -1,805 Descending Indianapolis Center
Sat 12:49:01 PM 39.0353 -87.5494 81° East 422 486 17,800 -1,659 Descending Indianapolis Center
Sat 12:50:03 PM 39.0517 -87.4106 81° East 395 455 16,100 -1,707 Descending Indianapolis Center
Sat 12:51:04 PM 39.0681 -87.2786 81° East 377 434 14,300 -1,463 Descending Indianapolis Center
Sat 12:52:06 PM 39.0836 -87.1522 81° East 362 417 13,100 -1,073 Descending Indianapolis Center
Sat 12:53:07 PM 39.0969 -87.0258 82° East 357 411 12,100 -976 Descending Indianapolis Center
Sat 12:54:09 PM 39.1111 -86.9108 81° East 335 386 11,100 -537 Descending Indianapolis Center
Sat 12:55:10 PM 39.1864 -86.8428 35° Northeast 304 350 11,000 -49 Descending Indianapolis Center
Sat 12:56:12 PM 39.2567 -86.7847 33° Northeast 299 344 11,000 -780 Level Indianapolis Center
Sat 12:57:13 PM 39.3250 -86.7286 32° Northeast 292 336 9,400 -1,512 Descending Indianapolis Center
Sat 12:58:15 PM 39.3933 -86.6728 32° Northeast 289 333 7,900 -1,366 Descending Indianapolis Center
Sat 12:59:16 PM 39.4561 -86.6125 37° Northeast 282 325 6,600 -1,171 Descending Indianapolis Center
Sat 01:00:18 PM 39.5108 -86.5450 44° Northeast 274 315 5,500 -976 Descending Indianapolis Center
Sat 01:01:19 PM 39.5589 -86.4842 44° Northeast 251 289 4,600 -927 Descending Indianapolis Center
Sat 01:02:21 PM 39.6011 -86.4303 45° Northeast 227 261 3,600 -1,073 Descending Indianapolis Center
Sat 01:03:22 PM 39.6456 -86.3744 44° Northeast 202 232 2,400 -1,098 Descending Indianapolis Center
Sat 01:03:43 PM 39.6500 -86.3667 53° Northeast 154 177 2,100 -741 Descending Indianapolis TRACON
Sat 01:04:43 PM 39.6833 -86.3333 38° Northeast 131 151 1,400 -476 Descending Indianapolis TRACON
Sat 01:06:27 PM 39.7264 -86.2708 48° Northeast 143 165 800 -346 Descending Indianapolis Center

Login

Don't have an account? Register now (free) for customized features, flight alerts, and more!